createdAt,value
2023-01-22T00:00:30.000Z,9.27
2023-01-22T00:03:01.157Z,6.93
2023-01-22T00:05:32.005Z,8.40
2023-01-22T00:08:03.064Z,8.43
2023-01-22T00:10:34.129Z,10.25
2023-01-22T00:15:36.364Z,7.88
2023-01-22T00:18:07.602Z,6.65
2023-01-22T00:20:39.327Z,9.63
2023-01-22T00:23:11.935Z,9.40
2023-01-22T00:28:14.564Z,8.50
2023-01-22T00:30:45.602Z,8.65
2023-01-22T00:33:16.724Z,10.05
2023-01-22T00:35:47.629Z,9.70
2023-01-22T00:38:18.702Z,9.32
2023-01-22T00:40:49.845Z,11.13
2023-01-22T00:43:20.686Z,7.45
2023-01-22T00:45:52.003Z,9.82
2023-01-22T00:50:54.510Z,10.05
2023-01-22T00:53:25.742Z,12.88
2023-01-22T00:55:58.645Z,10.15
2023-01-22T00:58:30.359Z,9.63
2023-01-22T01:01:03.655Z,11.65
2023-01-22T01:03:36.913Z,9.15
2023-01-22T01:08:49.239Z,9.80
2023-01-22T01:11:23.355Z,10.77
2023-01-22T01:13:54.834Z,11.07
2023-01-22T01:16:31.750Z,9.30
2023-01-22T01:19:04.777Z,7.75
2023-01-22T01:21:36.541Z,6.50
2023-01-22T01:24:07.937Z,7.68
2023-01-22T01:26:39.144Z,5.82
2023-01-22T01:29:11.543Z,7.43
2023-01-22T01:31:42.678Z,6.78
2023-01-22T01:34:14.952Z,5.93
2023-01-22T01:36:49.129Z,7.10
2023-01-22T01:39:21.954Z,4.45
2023-01-22T01:41:53.109Z,7.85
2023-01-22T01:44:25.750Z,7.78
2023-01-22T01:47:08.062Z,6.93
2023-01-22T01:49:49.877Z,7.10
2023-01-22T01:54:54.509Z,6.38
2023-01-22T01:57:29.908Z,7.20
2023-01-22T02:00:02.700Z,5.93
2023-01-22T02:02:43.663Z,5.90
2023-01-22T02:05:14.835Z,8.98
2023-01-22T02:07:46.003Z,7.28
2023-01-22T02:10:17.205Z,6.25
2023-01-22T02:15:20.441Z,6.88
2023-01-22T02:17:52.585Z,5.47
2023-01-22T02:20:24.610Z,4.65
2023-01-22T02:22:56.009Z,6.28
2023-01-22T02:25:27.922Z,4.32
2023-01-22T02:30:29.465Z,6.00
2023-01-22T02:35:31.315Z,6.10
2023-01-22T02:38:02.655Z,5.25
2023-01-22T02:40:35.240Z,5.82
2023-01-22T02:43:07.185Z,3.53
2023-01-22T02:45:38.484Z,4.53
2023-01-22T02:48:09.459Z,4.88
2023-01-22T02:50:40.585Z,3.97
2023-01-22T02:53:11.592Z,5.03
2023-01-22T02:58:14.702Z,5.25
2023-01-22T03:00:45.945Z,3.00
2023-01-22T03:03:19.666Z,4.43
2023-01-22T03:05:54.753Z,4.15
2023-01-22T03:08:28.100Z,3.92
2023-01-22T03:11:02.969Z,3.92
2023-01-22T03:13:52.757Z,3.38
2023-01-22T03:16:42.022Z,3.03
2023-01-22T03:19:31.827Z,2.80
2023-01-22T03:22:03.000Z,3.03
2023-01-22T03:24:34.589Z,2.67
2023-01-22T03:27:07.751Z,3.22
2023-01-22T03:29:40.353Z,3.25
2023-01-22T03:32:13.069Z,3.85
2023-01-22T03:34:45.690Z,3.97
2023-01-22T03:37:17.017Z,3.05
2023-01-22T03:39:50.424Z,4.45
2023-01-22T03:42:28.605Z,2.33
2023-01-22T03:44:59.884Z,3.75
2023-01-22T03:47:31.540Z,3.08
2023-01-22T03:50:04.920Z,3.58
2023-01-22T03:55:07.003Z,4.47
2023-01-22T03:57:38.073Z,3.80
2023-01-22T04:00:10.481Z,4.05
2023-01-22T04:02:44.318Z,4.63
2023-01-22T04:05:23.634Z,5.10
2023-01-22T04:07:55.165Z,4.53
2023-01-22T04:10:29.708Z,4.60
2023-01-22T04:13:03.137Z,5.45
2023-01-22T04:15:34.215Z,4.88
2023-01-22T04:18:11.284Z,4.22
2023-01-22T04:21:07.207Z,5.53
2023-01-22T04:23:45.721Z,5.03
2023-01-22T04:26:16.955Z,4.38
2023-01-22T04:28:48.160Z,5.95
2023-01-22T04:31:19.452Z,5.55
2023-01-22T04:34:13.562Z,5.60
2023-01-22T04:36:49.295Z,5.20
2023-01-22T04:39:20.964Z,5.78
2023-01-22T04:41:52.280Z,4.47
2023-01-22T04:44:23.397Z,3.67
2023-01-22T04:46:54.267Z,4.80
2023-01-22T04:49:25.889Z,4.60
2023-01-22T04:51:57.779Z,4.15
2023-01-22T04:54:30.357Z,3.60
2023-01-22T04:57:01.500Z,4.88
2023-01-22T04:59:32.854Z,4.72
2023-01-22T05:02:05.564Z,4.22
2023-01-22T05:04:36.660Z,3.95
2023-01-22T05:07:07.786Z,4.43
2023-01-22T05:09:38.874Z,3.47
2023-01-22T05:12:10.012Z,4.88
2023-01-22T05:14:44.462Z,4.03
2023-01-22T05:17:15.666Z,4.65
2023-01-22T05:19:47.549Z,4.30
2023-01-22T05:22:25.099Z,4.80
2023-01-22T05:24:56.224Z,5.85
2023-01-22T05:27:27.467Z,8.15
2023-01-22T05:30:07.260Z,5.78
2023-01-22T05:32:48.938Z,5.47
2023-01-22T05:37:50.647Z,8.10
2023-01-22T05:40:22.748Z,5.15
2023-01-22T05:42:54.129Z,8.70
2023-01-22T05:45:25.706Z,6.63
2023-01-22T05:48:23.120Z,6.25
2023-01-22T05:51:10.587Z,5.18
2023-01-22T05:53:42.139Z,7.65
2023-01-22T05:56:13.439Z,6.50
2023-01-22T05:58:44.693Z,8.02
2023-01-22T06:01:15.952Z,4.90
2023-01-22T06:03:51.295Z,6.88
2023-01-22T06:06:25.722Z,6.25
2023-01-22T06:08:58.327Z,5.50
2023-01-22T06:11:35.037Z,5.60
2023-01-22T06:14:06.567Z,11.00
2023-01-22T06:16:37.625Z,7.10
2023-01-22T06:19:12.819Z,8.48
2023-01-22T06:21:48.173Z,6.00
2023-01-22T06:24:21.465Z,6.60
2023-01-22T06:26:52.431Z,9.57
2023-01-22T06:29:24.973Z,8.32
2023-01-22T06:31:56.736Z,8.65
2023-01-22T06:34:27.967Z,6.20
2023-01-22T06:37:00.116Z,7.45
2023-01-22T06:39:35.010Z,10.07
2023-01-22T06:42:16.149Z,7.63
2023-01-22T06:44:47.609Z,8.30
2023-01-22T06:47:18.733Z,10.93
2023-01-22T06:49:50.127Z,6.53
2023-01-22T06:52:21.625Z,10.85
2023-01-22T06:54:52.779Z,10.85
2023-01-22T06:57:24.610Z,7.50
2023-01-22T06:59:55.699Z,8.43
2023-01-22T07:02:26.968Z,7.93
2023-01-22T07:04:58.051Z,7.88
2023-01-22T07:07:29.184Z,6.40
2023-01-22T07:10:00.244Z,8.30
2023-01-22T07:12:31.467Z,10.48
2023-01-22T07:15:02.567Z,6.30
2023-01-22T07:17:33.666Z,7.63
2023-01-22T07:20:05.343Z,10.43
2023-01-22T07:25:08.440Z,8.93
2023-01-22T07:27:39.975Z,9.50
2023-01-22T07:30:11.818Z,8.73
2023-01-22T07:32:43.338Z,9.57
2023-01-22T07:35:14.390Z,8.63
2023-01-22T07:37:45.812Z,10.82
2023-01-22T07:40:17.307Z,9.23
2023-01-22T07:45:20.755Z,8.00
2023-01-22T07:47:59.477Z,11.55
2023-01-22T07:50:32.835Z,8.93
2023-01-22T07:53:03.911Z,8.80
2023-01-22T07:55:35.034Z,9.60
2023-01-22T07:58:08.146Z,11.63
2023-01-22T08:00:39.473Z,9.32
2023-01-22T08:03:14.955Z,11.40
2023-01-22T08:05:46.013Z,11.15
2023-01-22T08:08:20.035Z,8.07
2023-01-22T08:10:51.072Z,13.60
2023-01-22T08:13:22.052Z,8.45
2023-01-22T08:15:53.145Z,9.85
2023-01-22T08:18:24.522Z,8.80
2023-01-22T08:20:55.420Z,11.82
2023-01-22T08:23:26.449Z,8.60
2023-01-22T08:26:02.572Z,9.00
2023-01-22T08:28:34.044Z,12.63
2023-01-22T08:31:09.372Z,11.23
2023-01-22T08:33:42.478Z,9.43
2023-01-22T08:36:13.796Z,8.32
2023-01-22T08:38:44.875Z,14.40
2023-01-22T08:41:17.190Z,9.95
2023-01-22T08:43:48.073Z,7.80
2023-01-22T08:46:19.126Z,9.10
2023-01-22T08:48:51.853Z,11.18
2023-01-22T08:51:24.914Z,10.38
2023-01-22T08:53:56.326Z,9.43
2023-01-22T08:56:27.245Z,8.98
2023-01-22T08:59:01.539Z,9.55
2023-01-22T09:01:32.655Z,13.50
2023-01-22T09:04:04.362Z,12.68
2023-01-22T09:06:35.961Z,9.75
2023-01-22T09:09:07.791Z,10.55
2023-01-22T09:14:11.261Z,9.85
2023-01-22T09:16:42.472Z,9.93
2023-01-22T09:19:13.995Z,8.25
2023-01-22T09:21:45.259Z,10.15
2023-01-22T09:24:16.179Z,10.20
2023-01-22T09:26:47.724Z,9.13
2023-01-22T09:29:18.996Z,13.82
2023-01-22T09:31:52.485Z,9.00
2023-01-22T09:34:23.545Z,9.25
2023-01-22T09:36:54.541Z,9.60
2023-01-22T09:39:25.804Z,8.98
2023-01-22T09:41:59.054Z,7.82
2023-01-22T09:44:46.708Z,8.38
2023-01-22T09:47:24.242Z,8.70
2023-01-22T09:50:18.751Z,7.97
2023-01-22T09:52:53.587Z,6.95
2023-01-22T09:55:26.868Z,10.93
2023-01-22T09:57:59.039Z,7.80
2023-01-22T10:00:45.616Z,10.68
2023-01-22T10:03:24.705Z,7.40
2023-01-22T10:06:03.609Z,9.55
2023-01-22T10:09:01.131Z,8.48
2023-01-22T10:11:31.997Z,8.55
2023-01-22T10:14:04.505Z,7.45
2023-01-22T10:16:35.756Z,7.75
2023-01-22T10:21:49.170Z,6.95
2023-01-22T10:24:20.003Z,7.97
2023-01-22T10:26:56.034Z,9.30
2023-01-22T10:29:33.763Z,6.60
2023-01-22T10:32:33.766Z,8.68
2023-01-22T10:35:04.992Z,7.65
2023-01-22T10:37:50.147Z,6.38
2023-01-22T10:40:36.470Z,11.20
2023-01-22T10:43:19.312Z,7.65
2023-01-22T10:45:58.325Z,6.35
2023-01-22T10:48:29.497Z,7.90
2023-01-22T10:51:14.246Z,6.55
2023-01-22T10:53:57.068Z,6.50
2023-01-22T10:56:36.762Z,8.10
2023-01-22T10:59:24.971Z,9.57
2023-01-22T11:02:01.646Z,10.20
2023-01-22T11:04:35.030Z,10.00
2023-01-22T11:07:11.082Z,5.90
2023-01-22T11:10:23.625Z,5.60
2023-01-22T11:13:07.689Z,5.57
2023-01-22T11:15:55.355Z,5.60
2023-01-22T11:18:36.412Z,5.93
2023-01-22T11:21:26.616Z,7.05
2023-01-22T11:24:11.714Z,5.63
2023-01-22T11:27:10.578Z,9.23
2023-01-22T11:30:03.587Z,8.05
2023-01-22T11:33:10.950Z,6.50
2023-01-22T11:36:22.037Z,9.43
2023-01-22T11:39:05.696Z,8.20
2023-01-22T11:41:58.535Z,6.28
2023-01-22T11:44:38.488Z,7.75
2023-01-22T11:47:24.575Z,7.75
2023-01-22T11:50:06.479Z,7.32
2023-01-22T11:53:05.800Z,10.20
2023-01-22T11:56:02.101Z,9.88
2023-01-22T11:59:01.658Z,9.27
2023-01-22T12:02:06.385Z,6.35
2023-01-22T12:04:56.170Z,7.28
2023-01-22T12:07:53.732Z,7.70
2023-01-22T12:10:43.202Z,6.20
2023-01-22T12:13:32.317Z,7.90
2023-01-22T12:16:17.683Z,5.85
2023-01-22T12:19:03.870Z,8.05
2023-01-22T12:21:40.486Z,9.15
2023-01-22T12:24:22.671Z,6.47
2023-01-22T12:27:22.525Z,8.48
2023-01-22T12:30:15.394Z,7.32
2023-01-22T12:32:51.651Z,5.88
2023-01-22T12:35:24.688Z,6.47
2023-01-22T12:38:24.066Z,5.43
2023-01-22T12:41:16.175Z,6.95
2023-01-22T12:44:19.203Z,7.35
2023-01-22T12:47:14.553Z,7.85
2023-01-22T12:49:53.518Z,5.38
2023-01-22T12:52:33.767Z,6.10
2023-01-22T12:55:25.414Z,8.05
2023-01-22T12:57:56.333Z,8.60
2023-01-22T13:00:36.287Z,7.95
2023-01-22T13:03:31.290Z,7.20
2023-01-22T13:06:05.315Z,10.60
2023-01-22T13:08:42.735Z,7.00
2023-01-22T13:11:16.050Z,5.03
2023-01-22T13:13:55.196Z,8.25
2023-01-22T13:16:34.591Z,6.55
2023-01-22T13:19:26.831Z,4.93
2023-01-22T13:22:02.343Z,6.28
2023-01-22T13:24:33.423Z,7.90
2023-01-22T13:27:05.316Z,6.18
2023-01-22T13:29:39.013Z,7.43
2023-01-22T13:32:23.230Z,7.88
2023-01-22T13:35:07.311Z,7.75
2023-01-22T13:37:40.157Z,8.38
2023-01-22T13:40:27.340Z,5.72
2023-01-22T13:42:59.824Z,6.30
2023-01-22T13:45:33.181Z,4.80
2023-01-22T13:48:07.250Z,8.23
2023-01-22T13:50:39.660Z,4.97
2023-01-22T13:53:20.881Z,6.78
2023-01-22T13:55:52.364Z,5.28
2023-01-22T13:58:48.379Z,6.30
2023-01-22T14:01:31.866Z,5.70
2023-01-22T14:04:06.993Z,6.90
2023-01-22T14:06:50.779Z,6.35
2023-01-22T14:09:28.711Z,5.47
2023-01-22T14:12:00.554Z,6.40
2023-01-22T14:14:41.921Z,7.18
2023-01-22T14:17:30.513Z,6.57
2023-01-22T14:20:01.717Z,7.28
2023-01-22T14:22:32.911Z,8.98
2023-01-22T14:25:04.150Z,4.00
2023-01-22T14:27:49.998Z,5.07
2023-01-22T14:30:23.343Z,6.95
2023-01-22T14:32:55.719Z,8.02
2023-01-22T14:35:28.769Z,5.45
2023-01-22T14:38:00.327Z,8.80
2023-01-22T14:40:31.880Z,6.07
2023-01-22T14:43:03.834Z,5.18
2023-01-22T14:45:34.917Z,6.55
2023-01-22T14:48:06.478Z,6.82
2023-01-22T14:50:37.384Z,6.65
2023-01-22T14:53:08.886Z,7.28
2023-01-22T14:55:39.898Z,7.22
2023-01-22T14:58:11.967Z,7.10
2023-01-22T15:00:43.195Z,6.70
2023-01-22T15:03:14.179Z,5.07
2023-01-22T15:05:46.090Z,5.07
2023-01-22T15:08:17.215Z,6.47
2023-01-22T15:10:48.125Z,5.93
2023-01-22T15:13:19.195Z,5.78
2023-01-22T15:15:50.275Z,7.53
2023-01-22T15:18:21.499Z,6.35
2023-01-22T15:20:52.514Z,8.20
2023-01-22T15:23:23.562Z,6.70
2023-01-22T15:26:02.193Z,6.03
2023-01-22T15:28:33.246Z,6.40
2023-01-22T15:31:11.677Z,7.53
2023-01-22T15:33:43.743Z,5.40
2023-01-22T15:36:14.632Z,6.15
2023-01-22T15:38:45.722Z,4.28
2023-01-22T15:41:31.193Z,7.23
2023-01-22T15:44:07.497Z,7.97
2023-01-22T15:46:41.029Z,6.53
2023-01-22T15:49:14.609Z,5.72
2023-01-22T15:51:45.760Z,6.65
2023-01-22T15:54:18.060Z,5.10
2023-01-22T15:56:49.185Z,6.75
2023-01-22T15:59:20.201Z,5.68
2023-01-22T16:01:51.369Z,6.03
2023-01-22T16:04:22.524Z,5.38
2023-01-22T16:06:53.667Z,7.50
2023-01-22T16:09:25.095Z,5.00
2023-01-22T16:11:56.357Z,6.80
2023-01-22T16:14:29.775Z,6.47
2023-01-22T16:17:01.971Z,5.07
2023-01-22T16:19:33.283Z,8.73
2023-01-22T16:22:04.547Z,5.05
2023-01-22T16:24:35.906Z,5.00
2023-01-22T16:27:06.796Z,6.22
2023-01-22T16:29:37.725Z,8.13
2023-01-22T16:32:09.108Z,7.20
2023-01-22T16:34:40.657Z,5.85
2023-01-22T16:37:11.822Z,8.52
2023-01-22T16:39:43.001Z,5.75
2023-01-22T16:42:14.243Z,6.65
2023-01-22T16:44:45.600Z,6.22
2023-01-22T16:47:16.649Z,5.75
2023-01-22T16:49:48.017Z,5.72
2023-01-22T16:52:22.903Z,7.82
2023-01-22T16:54:54.369Z,6.95
2023-01-22T16:57:25.391Z,7.43
2023-01-22T16:59:56.502Z,7.05
2023-01-22T17:02:27.628Z,6.32
2023-01-22T17:04:59.501Z,6.50
2023-01-22T17:07:33.850Z,7.43
2023-01-22T17:10:05.364Z,8.70
2023-01-22T17:12:36.466Z,6.18
2023-01-22T17:15:08.086Z,5.68
2023-01-22T17:17:39.302Z,6.88
2023-01-22T17:20:11.107Z,7.45
2023-01-22T17:25:12.995Z,8.05
2023-01-22T17:27:44.374Z,7.15
2023-01-22T17:30:17.143Z,7.78
2023-01-22T17:32:48.650Z,6.32
2023-01-22T17:37:51.119Z,7.47
2023-01-22T17:40:22.333Z,7.07
2023-01-22T17:42:53.575Z,7.47
2023-01-22T17:45:24.671Z,7.10
2023-01-22T17:47:56.029Z,11.00
2023-01-22T17:50:26.932Z,6.10
2023-01-22T17:52:57.761Z,7.23
2023-01-22T17:55:31.303Z,9.60
2023-01-22T17:58:02.295Z,9.68
2023-01-22T18:00:33.477Z,9.27
2023-01-22T18:03:04.889Z,9.73
2023-01-22T18:05:36.915Z,7.63
2023-01-22T18:08:08.176Z,7.50
2023-01-22T18:10:40.407Z,10.43
2023-01-22T18:13:11.502Z,9.27
2023-01-22T18:15:47.995Z,9.57
2023-01-22T18:18:19.563Z,10.55
2023-01-22T18:20:51.089Z,6.47
2023-01-22T18:23:22.489Z,8.93
2023-01-22T18:25:57.757Z,6.15
2023-01-22T18:28:29.841Z,6.30
2023-01-22T18:31:16.570Z,9.98
2023-01-22T18:33:49.643Z,9.20
2023-01-22T18:36:24.444Z,10.00
2023-01-22T18:38:56.024Z,4.47
2023-01-22T18:41:28.669Z,6.43
2023-01-22T18:44:02.095Z,7.25
2023-01-22T18:46:35.613Z,7.05
2023-01-22T18:49:10.168Z,12.45
2023-01-22T18:51:43.432Z,8.48
2023-01-22T18:54:14.731Z,9.45
2023-01-22T18:56:45.842Z,9.07
2023-01-22T18:59:17.006Z,6.30
2023-01-22T19:01:53.017Z,7.15
2023-01-22T19:04:24.166Z,7.15
2023-01-22T19:06:58.320Z,6.95
2023-01-22T19:09:29.924Z,9.38
2023-01-22T19:12:01.230Z,7.10
2023-01-22T19:14:32.561Z,6.25
2023-01-22T19:17:05.056Z,11.10
2023-01-22T19:19:36.276Z,7.75
2023-01-22T19:22:07.398Z,11.73
2023-01-22T19:24:38.920Z,10.02
2023-01-22T19:27:10.052Z,11.07
2023-01-22T19:29:41.315Z,10.93
2023-01-22T19:32:16.286Z,6.90
2023-01-22T19:34:47.388Z,10.40
2023-01-22T19:37:19.187Z,9.73
2023-01-22T19:39:50.428Z,6.28
2023-01-22T19:42:21.501Z,8.20
2023-01-22T19:44:53.652Z,7.38
2023-01-22T19:47:25.071Z,7.55
2023-01-22T19:49:55.984Z,7.70
2023-01-22T19:52:28.985Z,6.82
2023-01-22T19:55:00.102Z,6.13
2023-01-22T19:57:31.610Z,5.18
2023-01-22T20:00:02.677Z,6.55
2023-01-22T20:02:39.528Z,4.82
2023-01-22T20:05:10.782Z,4.22
2023-01-22T20:07:41.931Z,5.68
2023-01-22T20:10:15.494Z,5.90
2023-01-22T20:12:46.956Z,6.78
2023-01-22T20:15:18.211Z,4.68
2023-01-22T20:17:51.482Z,3.35
2023-01-22T20:20:23.887Z,6.97
2023-01-22T20:22:55.493Z,4.53
2023-01-22T20:25:26.444Z,3.80
2023-01-22T20:27:57.766Z,6.90
2023-01-22T20:32:59.910Z,4.55
2023-01-22T20:35:31.129Z,3.53
2023-01-22T20:38:03.089Z,5.50
2023-01-22T20:40:36.091Z,4.88
2023-01-22T20:43:07.956Z,5.60
2023-01-22T20:45:38.903Z,5.63
2023-01-22T20:48:09.780Z,6.38
2023-01-22T20:50:44.465Z,4.93
2023-01-22T20:53:15.357Z,5.20
2023-01-22T20:55:46.453Z,5.05
2023-01-22T20:58:17.559Z,4.03
2023-01-22T21:00:49.293Z,6.40
2023-01-22T21:03:20.488Z,7.57
2023-01-22T21:05:52.167Z,4.82
2023-01-22T21:08:23.096Z,3.65
2023-01-22T21:11:14.245Z,4.80
2023-01-22T21:13:45.567Z,4.40
2023-01-22T21:16:19.443Z,7.63
2023-01-22T21:18:50.950Z,6.35
2023-01-22T21:21:22.562Z,6.20
2023-01-22T21:23:56.170Z,5.57
2023-01-22T21:26:29.489Z,4.20
2023-01-22T21:29:03.812Z,4.70
2023-01-22T21:31:35.231Z,3.58
2023-01-22T21:36:41.367Z,4.55
2023-01-22T21:39:15.801Z,5.20
2023-01-22T21:41:47.265Z,6.60
2023-01-22T21:44:39.235Z,4.35
2023-01-22T21:49:40.567Z,5.57
2023-01-22T21:52:11.694Z,4.25
2023-01-22T21:57:18.222Z,6.07
2023-01-22T21:59:49.115Z,4.78
2023-01-22T22:02:20.993Z,4.72
2023-01-22T22:07:22.507Z,5.40
2023-01-22T22:09:53.621Z,5.18
2023-01-22T22:12:25.075Z,4.63
2023-01-22T22:14:56.261Z,4.97
2023-01-22T22:17:27.543Z,6.18
2023-01-22T22:19:58.836Z,7.32
2023-01-22T22:22:30.232Z,5.25
2023-01-22T22:25:01.339Z,4.97
2023-01-22T22:27:32.996Z,4.28
2023-01-22T22:30:04.343Z,3.50
2023-01-22T22:32:35.441Z,3.70
2023-01-22T22:35:06.919Z,4.80
2023-01-22T22:40:12.574Z,4.25
2023-01-22T22:42:43.694Z,6.35
2023-01-22T22:45:14.861Z,3.20
2023-01-22T22:50:16.654Z,3.65
2023-01-22T22:52:48.713Z,5.53
2023-01-22T22:55:19.679Z,4.47
2023-01-22T22:57:51.210Z,5.20
2023-01-22T23:00:22.618Z,5.25
2023-01-22T23:02:53.984Z,2.28
2023-01-22T23:07:55.783Z,3.03
2023-01-22T23:10:33.090Z,3.42
2023-01-22T23:13:05.980Z,4.32
2023-01-22T23:15:37.285Z,3.90
2023-01-22T23:18:08.452Z,5.38
2023-01-22T23:20:39.670Z,3.38
2023-01-22T23:23:10.807Z,5.60
2023-01-22T23:25:45.537Z,4.88
2023-01-22T23:28:16.425Z,3.85
2023-01-22T23:30:47.540Z,3.47
2023-01-22T23:33:19.154Z,4.15
2023-01-22T23:35:52.704Z,4.35
2023-01-22T23:38:24.076Z,4.85
2023-01-22T23:40:59.923Z,3.05
2023-01-22T23:43:31.156Z,6.00
2023-01-22T23:48:33.351Z,4.18
2023-01-22T23:51:04.446Z,5.43
2023-01-22T23:53:41.763Z,3.45
2023-01-22T23:56:14.020Z,4.28
2023-01-22T23:58:45.259Z,3.83
